sensor_id;sensor_type;location;lat;lon;timestamp;temperature;humidity
31675;DHT22;18276;45.520;11.018;2023-04-25T00:00:54;13.60;96.50
31675;DHT22;18276;45.520;11.018;2023-04-25T00:03:21;13.60;96.50
31675;DHT22;18276;45.520;11.018;2023-04-25T00:05:48;13.60;96.70
31675;DHT22;18276;45.520;11.018;2023-04-25T00:08:15;13.50;96.90
31675;DHT22;18276;45.520;11.018;2023-04-25T00:10:42;13.50;96.80
31675;DHT22;18276;45.520;11.018;2023-04-25T00:13:09;13.50;97.00
31675;DHT22;18276;45.520;11.018;2023-04-25T00:15:38;13.40;97.20
31675;DHT22;18276;45.520;11.018;2023-04-25T00:18:05;13.40;97.30
31675;DHT22;18276;45.520;11.018;2023-04-25T00:20:35;13.30;97.40
31675;DHT22;18276;45.520;11.018;2023-04-25T00:23:02;13.30;97.50
31675;DHT22;18276;45.520;11.018;2023-04-25T00:25:29;13.20;97.80
31675;DHT22;18276;45.520;11.018;2023-04-25T00:27:56;13.20;98.00
31675;DHT22;18276;45.520;11.018;2023-04-25T00:30:23;13.20;98.10
31675;DHT22;18276;45.520;11.018;2023-04-25T00:32:50;13.20;98.40
31675;DHT22;18276;45.520;11.018;2023-04-25T00:35:17;13.10;98.60
31675;DHT22;18276;45.520;11.018;2023-04-25T00:37:44;13.10;99.10
31675;DHT22;18276;45.520;11.018;2023-04-25T00:40:12;13.10;99.40
31675;DHT22;18276;45.520;11.018;2023-04-25T00:42:39;13.20;99.90
31675;DHT22;18276;45.520;11.018;2023-04-25T00:45:09;13.20;99.60
31675;DHT22;18276;45.520;11.018;2023-04-25T00:47:39;13.20;99.80
31675;DHT22;18276;45.520;11.018;2023-04-25T00:50:08;13.10;99.90
31675;DHT22;18276;45.520;11.018;2023-04-25T00:52:37;13.20;99.90
31675;DHT22;18276;45.520;11.018;2023-04-25T00:55:05;13.10;99.90
31675;DHT22;18276;45.520;11.018;2023-04-25T00:57:32;13.10;99.90
31675;DHT22;18276;45.520;11.018;2023-04-25T00:59:59;13.10;99.90
31675;DHT22;18276;45.520;11.018;2023-04-25T01:02:27;13.20;99.90
31675;DHT22;18276;45.520;11.018;2023-04-25T01:04:55;13.20;99.90
31675;DHT22;18276;45.520;11.018;2023-04-25T01:07:22;13.20;99.90
31675;DHT22;18276;45.520;11.018;2023-04-25T01:09:51;13.20;99.90
31675;DHT22;18276;45.520;11.018;2023-04-25T01:12:19;13.20;99.90
31675;DHT22;18276;45.520;11.018;2023-04-25T01:14:46;13.20;99.90
31675;DHT22;18276;45.520;11.018;2023-04-25T01:17:13;13.20;99.90
31675;DHT22;18276;45.520;11.018;2023-04-25T01:19:42;13.20;99.90
31675;DHT22;18276;45.520;11.018;2023-04-25T01:22:09;13.20;99.90
31675;DHT22;18276;45.520;11.018;2023-04-25T01:24:37;13.10;99.90
31675;DHT22;18276;45.520;11.018;2023-04-25T01:27:04;13.10;99.90
31675;DHT22;18276;45.520;11.018;2023-04-25T01:29:35;13.10;99.90
31675;DHT22;18276;45.520;11.018;2023-04-25T01:32:03;13.10;99.90
31675;DHT22;18276;45.520;11.018;2023-04-25T01:34:30;13.10;99.90
31675;DHT22;18276;45.520;11.018;2023-04-25T01:36:59;13.10;99.90
31675;DHT22;18276;45.520;11.018;2023-04-25T01:39:28;13.10;99.90
31675;DHT22;18276;45.520;11.018;2023-04-25T01:41:55;13.00;99.90
31675;DHT22;18276;45.520;11.018;2023-04-25T01:44:23;13.00;99.90
31675;DHT22;18276;45.520;11.018;2023-04-25T01:46:51;12.90;99.90
31675;DHT22;18276;45.520;11.018;2023-04-25T01:49:17;12.90;99.90
31675;DHT22;18276;45.520;11.018;2023-04-25T01:51:45;12.90;99.90
31675;DHT22;18276;45.520;11.018;2023-04-25T01:54:12;12.90;99.90
31675;DHT22;18276;45.520;11.018;2023-04-25T01:56:39;12.90;99.90
31675;DHT22;18276;45.520;11.018;2023-04-25T01:59:11;12.90;99.90
31675;DHT22;18276;45.520;11.018;2023-04-25T02:02:04;12.90;99.90
31675;DHT22;18276;45.520;11.018;2023-04-25T02:04:33;12.90;99.90
31675;DHT22;18276;45.520;11.018;2023-04-25T02:07:01;12.90;99.90
31675;DHT22;18276;45.520;11.018;2023-04-25T02:09:38;12.90;99.90
31675;DHT22;18276;45.520;11.018;2023-04-25T02:12:09;12.90;99.90
31675;DHT22;18276;45.520;11.018;2023-04-25T02:14:54;12.90;99.90
31675;DHT22;18276;45.520;11.018;2023-04-25T02:17:36;12.90;99.90
31675;DHT22;18276;45.520;11.018;2023-04-25T02:20:04;12.80;99.90
31675;DHT22;18276;45.520;11.018;2023-04-25T02:22:32;12.80;99.90
31675;DHT22;18276;45.520;11.018;2023-04-25T02:25:00;12.70;99.90
31675;DHT22;18276;45.520;11.018;2023-04-25T02:27:27;12.70;99.90
31675;DHT22;18276;45.520;11.018;2023-04-25T02:29:56;12.60;99.90
31675;DHT22;18276;45.520;11.018;2023-04-25T02:32:23;12.60;99.90
31675;DHT22;18276;45.520;11.018;2023-04-25T02:34:50;12.60;99.90
31675;DHT22;18276;45.520;11.018;2023-04-25T02:37:17;12.60;99.90
31675;DHT22;18276;45.520;11.018;2023-04-25T02:39:44;12.50;99.90
31675;DHT22;18276;45.520;11.018;2023-04-25T02:42:11;12.50;99.90
31675;DHT22;18276;45.520;11.018;2023-04-25T02:44:38;12.50;99.90
31675;DHT22;18276;45.520;11.018;2023-04-25T02:47:05;12.50;99.90
31675;DHT22;18276;45.520;11.018;2023-04-25T02:49:32;12.60;99.90
31675;DHT22;18276;45.520;11.018;2023-04-25T02:51:59;12.60;99.90
31675;DHT22;18276;45.520;11.018;2023-04-25T02:54:26;12.60;99.90
31675;DHT22;18276;45.520;11.018;2023-04-25T02:56:54;12.70;99.90
31675;DHT22;18276;45.520;11.018;2023-04-25T02:59:26;12.70;99.90
31675;DHT22;18276;45.520;11.018;2023-04-25T03:01:53;12.80;99.90
31675;DHT22;18276;45.520;11.018;2023-04-25T03:04:20;12.80;99.90
31675;DHT22;18276;45.520;11.018;2023-04-25T03:06:47;12.90;99.90
31675;DHT22;18276;45.520;11.018;2023-04-25T03:09:14;12.90;99.90
31675;DHT22;18276;45.520;11.018;2023-04-25T03:11:43;12.90;99.90
31675;DHT22;18276;45.520;11.018;2023-04-25T03:14:11;12.90;99.90
31675;DHT22;18276;45.520;11.018;2023-04-25T03:16:39;12.80;99.90
31675;DHT22;18276;45.520;11.018;2023-04-25T03:19:06;12.80;99.90
31675;DHT22;18276;45.520;11.018;2023-04-25T03:21:35;12.80;99.90
31675;DHT22;18276;45.520;11.018;2023-04-25T03:24:04;12.90;99.90
31675;DHT22;18276;45.520;11.018;2023-04-25T03:26:31;12.90;99.90
31675;DHT22;18276;45.520;11.018;2023-04-25T03:28:59;13.00;99.90
31675;DHT22;18276;45.520;11.018;2023-04-25T03:31:26;13.00;99.90
31675;DHT22;18276;45.520;11.018;2023-04-25T03:33:54;13.00;99.90
31675;DHT22;18276;45.520;11.018;2023-04-25T03:36:22;13.00;99.90
31675;DHT22;18276;45.520;11.018;2023-04-25T03:38:49;13.00;99.90
31675;DHT22;18276;45.520;11.018;2023-04-25T03:41:17;13.10;99.90
31675;DHT22;18276;45.520;11.018;2023-04-25T03:43:48;13.10;99.90
31675;DHT22;18276;45.520;11.018;2023-04-25T03:46:16;13.20;99.90
31675;DHT22;18276;45.520;11.018;2023-04-25T03:48:45;13.20;99.50
31675;DHT22;18276;45.520;11.018;2023-04-25T03:51:19;13.30;99.10
31675;DHT22;18276;45.520;11.018;2023-04-25T03:53:47;13.30;98.50
31675;DHT22;18276;45.520;11.018;2023-04-25T03:56:30;13.30;98.20
31675;DHT22;18276;45.520;11.018;2023-04-25T03:59:08;13.30;98.00
31675;DHT22;18276;45.520;11.018;2023-04-25T04:01:35;13.30;97.80
31675;DHT22;18276;45.520;11.018;2023-04-25T04:04:03;13.30;97.20
31675;DHT22;18276;45.520;11.018;2023-04-25T04:06:31;13.30;96.80
31675;DHT22;18276;45.520;11.018;2023-04-25T04:09:06;13.40;96.10
31675;DHT22;18276;45.520;11.018;2023-04-25T04:11:39;13.40;95.50
31675;DHT22;18276;45.520;11.018;2023-04-25T04:14:06;13.40;94.80
31675;DHT22;18276;45.520;11.018;2023-04-25T04:16:35;13.40;94.40
31675;DHT22;18276;45.520;11.018;2023-04-25T04:19:02;13.40;94.00
31675;DHT22;18276;45.520;11.018;2023-04-25T04:21:30;13.40;93.60
31675;DHT22;18276;45.520;11.018;2023-04-25T04:23:59;13.40;93.20
31675;DHT22;18276;45.520;11.018;2023-04-25T04:26:29;13.40;92.60
31675;DHT22;18276;45.520;11.018;2023-04-25T04:29:22;13.40;91.90
31675;DHT22;18276;45.520;11.018;2023-04-25T04:31:58;13.50;91.20
31675;DHT22;18276;45.520;11.018;2023-04-25T04:34:29;13.50;90.70
31675;DHT22;18276;45.520;11.018;2023-04-25T04:36:56;13.60;90.40
31675;DHT22;18276;45.520;11.018;2023-04-25T04:39:24;13.60;89.90
31675;DHT22;18276;45.520;11.018;2023-04-25T04:42:10;13.60;89.80
31675;DHT22;18276;45.520;11.018;2023-04-25T04:44:58;13.60;89.70
31675;DHT22;18276;45.520;11.018;2023-04-25T04:47:45;13.60;89.80
31675;DHT22;18276;45.520;11.018;2023-04-25T04:50:31;13.60;89.70
31675;DHT22;18276;45.520;11.018;2023-04-25T04:53:19;13.60;89.30
31675;DHT22;18276;45.520;11.018;2023-04-25T04:56:09;13.60;89.40
31675;DHT22;18276;45.520;11.018;2023-04-25T04:59:08;13.60;90.10
31675;DHT22;18276;45.520;11.018;2023-04-25T05:01:58;13.60;90.50
31675;DHT22;18276;45.520;11.018;2023-04-25T05:04:45;13.60;90.70
31675;DHT22;18276;45.520;11.018;2023-04-25T05:07:31;13.50;90.80
31675;DHT22;18276;45.520;11.018;2023-04-25T05:10:24;13.60;90.90
31675;DHT22;18276;45.520;11.018;2023-04-25T05:13:10;13.60;91.40
31675;DHT22;18276;45.520;11.018;2023-04-25T05:15:56;13.40;92.30
31675;DHT22;18276;45.520;11.018;2023-04-25T05:18:42;13.30;93.30
31675;DHT22;18276;45.520;11.018;2023-04-25T05:21:27;13.20;94.50
31675;DHT22;18276;45.520;11.018;2023-04-25T05:24:06;13.10;95.50
31675;DHT22;18276;45.520;11.018;2023-04-25T05:26:52;13.00;96.30
31675;DHT22;18276;45.520;11.018;2023-04-25T05:29:42;12.90;97.10
31675;DHT22;18276;45.520;11.018;2023-04-25T05:32:26;12.80;97.70
31675;DHT22;18276;45.520;11.018;2023-04-25T05:34:54;12.70;98.30
31675;DHT22;18276;45.520;11.018;2023-04-25T05:37:27;12.70;98.60
31675;DHT22;18276;45.520;11.018;2023-04-25T05:39:58;12.60;98.90
31675;DHT22;18276;45.520;11.018;2023-04-25T05:42:34;12.60;99.40
31675;DHT22;18276;45.520;11.018;2023-04-25T05:45:20;12.60;99.80
31675;DHT22;18276;45.520;11.018;2023-04-25T05:47:53;12.40;99.90
31675;DHT22;18276;45.520;11.018;2023-04-25T05:50:27;12.30;99.90
31675;DHT22;18276;45.520;11.018;2023-04-25T05:52:59;12.20;99.90
31675;DHT22;18276;45.520;11.018;2023-04-25T05:55:34;12.20;99.90
31675;DHT22;18276;45.520;11.018;2023-04-25T05:58:15;12.10;99.90
31675;DHT22;18276;45.520;11.018;2023-04-25T06:00:42;12.10;99.90
31675;DHT22;18276;45.520;11.018;2023-04-25T06:03:09;12.10;99.90
31675;DHT22;18276;45.520;11.018;2023-04-25T06:05:36;12.10;99.90
31675;DHT22;18276;45.520;11.018;2023-04-25T06:08:04;12.10;99.90
31675;DHT22;18276;45.520;11.018;2023-04-25T06:10:31;12.10;99.90
31675;DHT22;18276;45.520;11.018;2023-04-25T06:12:58;12.10;99.90
31675;DHT22;18276;45.520;11.018;2023-04-25T06:15:25;12.20;99.90
31675;DHT22;18276;45.520;11.018;2023-04-25T06:17:55;12.30;99.90
31675;DHT22;18276;45.520;11.018;2023-04-25T06:20:22;12.40;99.90
31675;DHT22;18276;45.520;11.018;2023-04-25T06:22:53;12.40;99.90
31675;DHT22;18276;45.520;11.018;2023-04-25T06:25:26;12.50;99.90
31675;DHT22;18276;45.520;11.018;2023-04-25T06:27:54;12.50;99.90
31675;DHT22;18276;45.520;11.018;2023-04-25T06:30:21;12.50;99.90
31675;DHT22;18276;45.520;11.018;2023-04-25T06:32:57;12.50;99.90
31675;DHT22;18276;45.520;11.018;2023-04-25T06:35:27;12.50;99.90
31675;DHT22;18276;45.520;11.018;2023-04-25T06:37:54;12.50;99.90
31675;DHT22;18276;45.520;11.018;2023-04-25T06:40:23;12.50;99.90
31675;DHT22;18276;45.520;11.018;2023-04-25T06:42:50;12.50;99.90
31675;DHT22;18276;45.520;11.018;2023-04-25T06:45:56;12.50;99.90
31675;DHT22;18276;45.520;11.018;2023-04-25T06:48:27;12.40;99.90
31675;DHT22;18276;45.520;11.018;2023-04-25T06:50:54;12.40;99.90
31675;DHT22;18276;45.520;11.018;2023-04-25T06:53:22;12.40;99.90
31675;DHT22;18276;45.520;11.018;2023-04-25T06:55:55;12.40;99.90
31675;DHT22;18276;45.520;11.018;2023-04-25T06:58:23;12.50;99.90
31675;DHT22;18276;45.520;11.018;2023-04-25T07:00:57;12.40;99.90
31675;DHT22;18276;45.520;11.018;2023-04-25T07:03:25;12.50;99.90
31675;DHT22;18276;45.520;11.018;2023-04-25T07:05:58;12.60;99.90
31675;DHT22;18276;45.520;11.018;2023-04-25T07:08:25;12.60;99.90
31675;DHT22;18276;45.520;11.018;2023-04-25T07:10:52;12.80;99.90
31675;DHT22;18276;45.520;11.018;2023-04-25T07:13:19;12.90;99.90
31675;DHT22;18276;45.520;11.018;2023-04-25T07:15:46;13.10;99.90
31675;DHT22;18276;45.520;11.018;2023-04-25T07:18:16;13.50;99.90
31675;DHT22;18276;45.520;11.018;2023-04-25T07:20:43;14.60;99.90
31675;DHT22;18276;45.520;11.018;2023-04-25T07:23:12;16.20;99.90
31675;DHT22;18276;45.520;11.018;2023-04-25T07:25:39;17.30;93.70
31675;DHT22;18276;45.520;11.018;2023-04-25T07:28:07;18.00;90.70
31675;DHT22;18276;45.520;11.018;2023-04-25T07:30:35;18.90;85.70
31675;DHT22;18276;45.520;11.018;2023-04-25T07:33:03;19.30;79.20
31675;DHT22;18276;45.520;11.018;2023-04-25T07:35:31;19.30;76.20
31675;DHT22;18276;45.520;11.018;2023-04-25T07:37:58;19.20;75.00
31675;DHT22;18276;45.520;11.018;2023-04-25T07:40:26;18.70;72.20
31675;DHT22;18276;45.520;11.018;2023-04-25T07:42:58;17.90;71.30
31675;DHT22;18276;45.520;11.018;2023-04-25T07:45:32;17.30;73.00
31675;DHT22;18276;45.520;11.018;2023-04-25T07:48:01;17.00;75.60
31675;DHT22;18276;45.520;11.018;2023-04-25T07:50:30;17.90;77.90
31675;DHT22;18276;45.520;11.018;2023-04-25T07:52:57;19.60;75.30
31675;DHT22;18276;45.520;11.018;2023-04-25T07:55:30;21.30;68.50
31675;DHT22;18276;45.520;11.018;2023-04-25T07:58:03;22.60;63.00
31675;DHT22;18276;45.520;11.018;2023-04-25T08:00:31;23.90;59.20
31675;DHT22;18276;45.520;11.018;2023-04-25T08:03:18;24.90;53.10
31675;DHT22;18276;45.520;11.018;2023-04-25T08:05:45;25.90;51.40
31675;DHT22;18276;45.520;11.018;2023-04-25T08:08:13;26.40;48.90
31675;DHT22;18276;45.520;11.018;2023-04-25T08:10:41;26.90;47.50
31675;DHT22;18276;45.520;11.018;2023-04-25T08:13:08;27.10;46.20
31675;DHT22;18276;45.520;11.018;2023-04-25T08:15:36;27.60;44.90
31675;DHT22;18276;45.520;11.018;2023-04-25T08:18:03;27.90;43.20
31675;DHT22;18276;45.520;11.018;2023-04-25T08:20:31;27.70;43.90
31675;DHT22;18276;45.520;11.018;2023-04-25T08:23:00;28.40;43.90
31675;DHT22;18276;45.520;11.018;2023-04-25T08:25:45;29.00;42.90
31675;DHT22;18276;45.520;11.018;2023-04-25T08:28:15;29.90;41.00
31675;DHT22;18276;45.520;11.018;2023-04-25T08:30:44;29.80;40.10
31675;DHT22;18276;45.520;11.018;2023-04-25T08:33:13;29.20;39.40
31675;DHT22;18276;45.520;11.018;2023-04-25T08:35:53;28.70;41.10
31675;DHT22;18276;45.520;11.018;2023-04-25T08:38:19;29.40;42.00
31675;DHT22;18276;45.520;11.018;2023-04-25T08:40:48;30.30;40.30
31675;DHT22;18276;45.520;11.018;2023-04-25T08:43:18;30.50;37.80
31675;DHT22;18276;45.520;11.018;2023-04-25T08:45:46;30.00;37.70
31675;DHT22;18276;45.520;11.018;2023-04-25T08:48:23;30.00;38.20
31675;DHT22;18276;45.520;11.018;2023-04-25T08:50:53;30.20;37.80
31675;DHT22;18276;45.520;11.018;2023-04-25T08:53:21;30.70;37.00
31675;DHT22;18276;45.520;11.018;2023-04-25T08:55:49;30.80;36.20
31675;DHT22;18276;45.520;11.018;2023-04-25T08:58:16;30.40;37.20
31675;DHT22;18276;45.520;11.018;2023-04-25T09:00:45;30.30;36.90
31675;DHT22;18276;45.520;11.018;2023-04-25T09:03:13;30.50;37.00
31675;DHT22;18276;45.520;11.018;2023-04-25T09:05:41;30.80;36.00
31675;DHT22;18276;45.520;11.018;2023-04-25T09:08:09;30.70;34.90
31675;DHT22;18276;45.520;11.018;2023-04-25T09:10:37;29.90;35.70
31675;DHT22;18276;45.520;11.018;2023-04-25T09:13:06;29.70;36.40
31675;DHT22;18276;45.520;11.018;2023-04-25T09:15:55;29.50;36.50
31675;DHT22;18276;45.520;11.018;2023-04-25T09:18:43;28.90;37.30
31675;DHT22;18276;45.520;11.018;2023-04-25T09:21:14;27.80;38.50
31675;DHT22;18276;45.520;11.018;2023-04-25T09:23:45;27.30;39.80
31675;DHT22;18276;45.520;11.018;2023-04-25T09:26:14;26.50;40.50
31675;DHT22;18276;45.520;11.018;2023-04-25T09:28:43;25.80;41.90
31675;DHT22;18276;45.520;11.018;2023-04-25T09:31:11;25.40;42.80
31675;DHT22;18276;45.520;11.018;2023-04-25T09:33:45;25.30;43.60
31675;DHT22;18276;45.520;11.018;2023-04-25T09:36:12;25.00;44.00
31675;DHT22;18276;45.520;11.018;2023-04-25T09:39:06;24.50;44.60
31675;DHT22;18276;45.520;11.018;2023-04-25T09:41:46;24.00;45.70
31675;DHT22;18276;45.520;11.018;2023-04-25T09:44:13;24.10;46.10
31675;DHT22;18276;45.520;11.018;2023-04-25T09:46:42;25.20;45.40
31675;DHT22;18276;45.520;11.018;2023-04-25T09:49:17;25.60;44.10
31675;DHT22;18276;45.520;11.018;2023-04-25T09:51:59;26.20;42.70
31675;DHT22;18276;45.520;11.018;2023-04-25T09:54:33;25.90;41.90
31675;DHT22;18276;45.520;11.018;2023-04-25T09:57:14;25.40;42.50
31675;DHT22;18276;45.520;11.018;2023-04-25T09:59:45;25.00;42.80
31675;DHT22;18276;45.520;11.018;2023-04-25T10:02:13;24.50;43.80
31675;DHT22;18276;45.520;11.018;2023-04-25T10:04:40;24.20;44.70
31675;DHT22;18276;45.520;11.018;2023-04-25T10:07:15;23.90;45.70
31675;DHT22;18276;45.520;11.018;2023-04-25T10:09:44;23.60;46.00
31675;DHT22;18276;45.520;11.018;2023-04-25T10:12:13;24.10;46.70
31675;DHT22;18276;45.520;11.018;2023-04-25T10:14:41;24.30;45.50
31675;DHT22;18276;45.520;11.018;2023-04-25T10:17:09;23.90;45.40
31675;DHT22;18276;45.520;11.018;2023-04-25T10:19:37;23.40;46.50
31675;DHT22;18276;45.520;11.018;2023-04-25T10:24:49;23.80;46.80
31675;DHT22;18276;45.520;11.018;2023-04-25T10:27:17;25.90;44.00
31675;DHT22;18276;45.520;11.018;2023-04-25T10:29:44;27.10;41.70
31675;DHT22;18276;45.520;11.018;2023-04-25T10:32:11;27.50;40.80
31675;DHT22;18276;45.520;11.018;2023-04-25T10:34:44;28.20;39.20
31675;DHT22;18276;45.520;11.018;2023-04-25T10:37:15;29.30;38.40
31675;DHT22;18276;45.520;11.018;2023-04-25T10:39:42;28.40;37.70
31675;DHT22;18276;45.520;11.018;2023-04-25T10:42:09;27.40;39.30
31675;DHT22;18276;45.520;11.018;2023-04-25T10:44:36;27.20;39.90
31675;DHT22;18276;45.520;11.018;2023-04-25T10:47:03;27.40;39.40
31675;DHT22;18276;45.520;11.018;2023-04-25T10:49:34;27.30;39.50
31675;DHT22;18276;45.520;11.018;2023-04-25T10:52:24;26.50;40.30
31675;DHT22;18276;45.520;11.018;2023-04-25T10:54:53;25.50;41.80
31675;DHT22;18276;45.520;11.018;2023-04-25T10:57:27;24.50;42.90
31675;DHT22;18276;45.520;11.018;2023-04-25T10:59:59;23.50;45.10
31675;DHT22;18276;45.520;11.018;2023-04-25T11:02:27;22.80;46.80
31675;DHT22;18276;45.520;11.018;2023-04-25T11:04:57;22.60;47.70
31675;DHT22;18276;45.520;11.018;2023-04-25T11:07:34;22.30;47.90
31675;DHT22;18276;45.520;11.018;2023-04-25T11:10:04;22.50;48.60
31675;DHT22;18276;45.520;11.018;2023-04-25T11:12:31;22.40;48.30
31675;DHT22;18276;45.520;11.018;2023-04-25T11:15:05;21.90;49.10
31675;DHT22;18276;45.520;11.018;2023-04-25T11:17:32;21.40;49.70
31675;DHT22;18276;45.520;11.018;2023-04-25T11:20:00;20.80;50.80
31675;DHT22;18276;45.520;11.018;2023-04-25T11:22:27;20.30;51.70
31675;DHT22;18276;45.520;11.018;2023-04-25T11:24:54;19.90;52.70
31675;DHT22;18276;45.520;11.018;2023-04-25T11:27:21;19.50;53.30
31675;DHT22;18276;45.520;11.018;2023-04-25T11:29:48;19.10;54.40
31675;DHT22;18276;45.520;11.018;2023-04-25T11:32:15;18.70;55.00
31675;DHT22;18276;45.520;11.018;2023-04-25T11:34:45;18.20;55.70
31675;DHT22;18276;45.520;11.018;2023-04-25T11:37:14;17.90;56.90
31675;DHT22;18276;45.520;11.018;2023-04-25T11:39:45;17.70;57.60
31675;DHT22;18276;45.520;11.018;2023-04-25T11:42:15;17.70;58.10
31675;DHT22;18276;45.520;11.018;2023-04-25T11:44:41;17.70;58.20
31675;DHT22;18276;45.520;11.018;2023-04-25T11:47:08;17.60;58.70
31675;DHT22;18276;45.520;11.018;2023-04-25T11:49:35;17.50;59.80
31675;DHT22;18276;45.520;11.018;2023-04-25T11:52:03;17.50;59.80
31675;DHT22;18276;45.520;11.018;2023-04-25T11:54:35;17.50;60.50
31675;DHT22;18276;45.520;11.018;2023-04-25T11:57:03;17.60;61.20
31675;DHT22;18276;45.520;11.018;2023-04-25T11:59:30;17.60;61.40
31675;DHT22;18276;45.520;11.018;2023-04-25T12:01:57;17.70;61.60
31675;DHT22;18276;45.520;11.018;2023-04-25T12:04:24;17.70;62.30
31675;DHT22;18276;45.520;11.018;2023-04-25T12:06:54;17.80;62.80
31675;DHT22;18276;45.520;11.018;2023-04-25T12:09:29;17.80;63.90
31675;DHT22;18276;45.520;11.018;2023-04-25T12:11:58;17.80;63.70
31675;DHT22;18276;45.520;11.018;2023-04-25T12:14:27;17.70;64.30
31675;DHT22;18276;45.520;11.018;2023-04-25T12:16:56;17.70;64.90
31675;DHT22;18276;45.520;11.018;2023-04-25T12:19:25;17.50;65.80
31675;DHT22;18276;45.520;11.018;2023-04-25T12:21:53;17.40;67.00
31675;DHT22;18276;45.520;11.018;2023-04-25T12:24:26;17.20;67.70
31675;DHT22;18276;45.520;11.018;2023-04-25T12:27:04;17.00;68.90
31675;DHT22;18276;45.520;11.018;2023-04-25T12:29:33;16.70;70.40
31675;DHT22;18276;45.520;11.018;2023-04-25T12:32:16;16.40;71.30
31675;DHT22;18276;45.520;11.018;2023-04-25T12:34:43;16.10;71.60
31675;DHT22;18276;45.520;11.018;2023-04-25T12:37:11;15.80;72.90
31675;DHT22;18276;45.520;11.018;2023-04-25T12:39:39;15.50;74.60
31675;DHT22;18276;45.520;11.018;2023-04-25T12:42:15;15.30;75.70
31675;DHT22;18276;45.520;11.018;2023-04-25T12:44:42;15.10;76.80
31675;DHT22;18276;45.520;11.018;2023-04-25T12:47:08;15.00;77.90
31675;DHT22;18276;45.520;11.018;2023-04-25T12:49:36;15.00;78.60
31675;DHT22;18276;45.520;11.018;2023-04-25T12:52:03;14.90;79.30
31675;DHT22;18276;45.520;11.018;2023-04-25T12:54:30;14.90;79.70
31675;DHT22;18276;45.520;11.018;2023-04-25T12:56:57;14.90;80.40
31675;DHT22;18276;45.520;11.018;2023-04-25T12:59:25;14.90;81.00
31675;DHT22;18276;45.520;11.018;2023-04-25T13:01:52;14.80;81.10
31675;DHT22;18276;45.520;11.018;2023-04-25T13:04:19;14.80;81.30
31675;DHT22;18276;45.520;11.018;2023-04-25T13:06:48;14.80;81.10
31675;DHT22;18276;45.520;11.018;2023-04-25T13:09:15;14.70;80.70
31675;DHT22;18276;45.520;11.018;2023-04-25T13:11:42;14.70;80.40
31675;DHT22;18276;45.520;11.018;2023-04-25T13:14:09;14.60;80.00
31675;DHT22;18276;45.520;11.018;2023-04-25T13:16:36;14.60;79.90
31675;DHT22;18276;45.520;11.018;2023-04-25T13:19:04;14.60;79.50
31675;DHT22;18276;45.520;11.018;2023-04-25T13:21:32;14.50;79.60
31675;DHT22;18276;45.520;11.018;2023-04-25T13:23:59;14.50;80.40
31675;DHT22;18276;45.520;11.018;2023-04-25T13:26:26;14.60;81.10
31675;DHT22;18276;45.520;11.018;2023-04-25T13:28:53;14.60;81.90
31675;DHT22;18276;45.520;11.018;2023-04-25T13:31:20;14.60;82.30
31675;DHT22;18276;45.520;11.018;2023-04-25T13:33:47;14.60;82.80
31675;DHT22;18276;45.520;11.018;2023-04-25T13:36:15;14.60;82.90
31675;DHT22;18276;45.520;11.018;2023-04-25T13:38:42;14.70;82.90
31675;DHT22;18276;45.520;11.018;2023-04-25T13:41:10;14.80;82.70
31675;DHT22;18276;45.520;11.018;2023-04-25T13:43:42;14.80;82.60
31675;DHT22;18276;45.520;11.018;2023-04-25T13:46:09;14.70;82.70
31675;DHT22;18276;45.520;11.018;2023-04-25T13:48:56;14.60;82.00
31675;DHT22;18276;45.520;11.018;2023-04-25T13:51:37;14.30;81.50
31675;DHT22;18276;45.520;11.018;2023-04-25T13:54:04;14.20;82.30
31675;DHT22;18276;45.520;11.018;2023-04-25T13:56:31;14.20;83.00
31675;DHT22;18276;45.520;11.018;2023-04-25T13:58:58;14.30;83.60
31675;DHT22;18276;45.520;11.018;2023-04-25T14:01:25;14.40;83.70
31675;DHT22;18276;45.520;11.018;2023-04-25T14:03:54;14.40;83.70
31675;DHT22;18276;45.520;11.018;2023-04-25T14:06:21;14.50;84.00
31675;DHT22;18276;45.520;11.018;2023-04-25T14:08:50;14.50;83.80
31675;DHT22;18276;45.520;11.018;2023-04-25T14:11:17;14.50;83.30
31675;DHT22;18276;45.520;11.018;2023-04-25T14:13:47;14.50;83.50
31675;DHT22;18276;45.520;11.018;2023-04-25T14:16:16;14.50;83.90
31675;DHT22;18276;45.520;11.018;2023-04-25T14:18:43;14.40;84.30
31675;DHT22;18276;45.520;11.018;2023-04-25T14:21:10;14.40;86.00
31675;DHT22;18276;45.520;11.018;2023-04-25T14:23:37;14.20;86.90
31675;DHT22;18276;45.520;11.018;2023-04-25T14:26:04;14.10;87.10
31675;DHT22;18276;45.520;11.018;2023-04-25T14:28:32;14.10;87.20
31675;DHT22;18276;45.520;11.018;2023-04-25T14:30:59;14.00;87.20
31675;DHT22;18276;45.520;11.018;2023-04-25T14:33:27;13.90;88.20
31675;DHT22;18276;45.520;11.018;2023-04-25T14:35:54;13.80;89.40
31675;DHT22;18276;45.520;11.018;2023-04-25T14:38:21;13.90;90.10
31675;DHT22;18276;45.520;11.018;2023-04-25T14:40:50;14.00;90.40
31675;DHT22;18276;45.520;11.018;2023-04-25T14:43:18;14.20;90.30
31675;DHT22;18276;45.520;11.018;2023-04-25T14:45:45;14.50;89.40
31675;DHT22;18276;45.520;11.018;2023-04-25T14:48:12;14.80;88.80
31675;DHT22;18276;45.520;11.018;2023-04-25T14:50:39;15.10;89.10
31675;DHT22;18276;45.520;11.018;2023-04-25T14:53:06;15.40;88.20
31675;DHT22;18276;45.520;11.018;2023-04-25T14:55:33;15.60;86.00
31675;DHT22;18276;45.520;11.018;2023-04-25T14:58:00;15.80;84.20
31675;DHT22;18276;45.520;11.018;2023-04-25T15:00:27;15.90;83.40
31675;DHT22;18276;45.520;11.018;2023-04-25T15:02:55;16.00;82.80
31675;DHT22;18276;45.520;11.018;2023-04-25T15:05:22;16.10;82.50
31675;DHT22;18276;45.520;11.018;2023-04-25T15:07:50;16.20;81.70
31675;DHT22;18276;45.520;11.018;2023-04-25T15:10:18;16.30;78.70
31675;DHT22;18276;45.520;11.018;2023-04-25T15:12:45;16.30;77.70
31675;DHT22;18276;45.520;11.018;2023-04-25T15:15:15;16.30;77.50
31675;DHT22;18276;45.520;11.018;2023-04-25T15:17:53;16.40;77.20
31675;DHT22;18276;45.520;11.018;2023-04-25T15:20:25;16.40;76.50
31675;DHT22;18276;45.520;11.018;2023-04-25T15:22:53;16.50;76.40
31675;DHT22;18276;45.520;11.018;2023-04-25T15:25:21;16.70;75.20
31675;DHT22;18276;45.520;11.018;2023-04-25T15:27:48;16.60;73.40
31675;DHT22;18276;45.520;11.018;2023-04-25T15:30:17;16.60;73.50
31675;DHT22;18276;45.520;11.018;2023-04-25T15:32:45;16.50;73.00
31675;DHT22;18276;45.520;11.018;2023-04-25T15:35:14;16.30;74.00
31675;DHT22;18276;45.520;11.018;2023-04-25T15:37:44;16.30;74.30